createdAt,value
2022-09-05T00:00:21.853Z,17.73
2022-09-05T00:01:28.613Z,17.74
2022-09-05T00:02:48.726Z,17.71
2022-09-05T00:03:56.083Z,17.67
2022-09-05T00:05:12.792Z,17.62
2022-09-05T00:06:15.954Z,17.59
2022-09-05T00:07:59.547Z,17.56
2022-09-05T00:09:06.256Z,17.49
2022-09-05T00:10:37.265Z,17.47
2022-09-05T00:11:44.056Z,17.48
2022-09-05T00:12:46.477Z,17.44
2022-09-05T00:14:05.960Z,17.40
2022-09-05T00:15:19.393Z,17.37
2022-09-05T00:16:37.218Z,17.32
2022-09-05T00:18:20.334Z,17.29
2022-09-05T00:24:22.578Z,17.24
2022-09-05T00:24:25.767Z,17.14
2022-09-05T00:24:25.967Z,17.22
2022-09-05T00:24:30.373Z,17.18
2022-09-05T00:25:43.122Z,17.13
2022-09-05T00:26:50.516Z,17.11
2022-09-05T00:28:01.056Z,17.09
2022-09-05T00:29:47.820Z,17.09
2022-09-05T00:31:55.520Z,17.05
2022-09-05T00:32:55.236Z,17.07
2022-09-05T00:34:02.863Z,17.05
2022-09-05T00:35:04.214Z,17.02
2022-09-05T00:36:20.568Z,17.01
2022-09-05T00:37:48.392Z,16.99
2022-09-05T00:39:11.968Z,16.98
2022-09-05T00:40:33.651Z,16.96
2022-09-05T00:41:35.136Z,16.94
2022-09-05T00:42:37.183Z,16.93
2022-09-05T00:43:43.316Z,16.89
2022-09-05T00:45:19.511Z,16.87
2022-09-05T00:46:42.515Z,16.85
2022-09-05T00:47:49.455Z,16.83
2022-09-05T00:49:02.724Z,16.80
2022-09-05T00:50:16.725Z,16.77
2022-09-05T00:51:35.416Z,16.77
2022-09-05T00:52:42.933Z,16.78
2022-09-05T00:54:03.153Z,16.76
2022-09-05T00:55:13.833Z,16.74
2022-09-05T00:56:33.258Z,16.72
2022-09-05T00:57:50.085Z,16.70
2022-09-05T00:59:11.697Z,16.67
2022-09-05T01:00:18.284Z,16.64
2022-09-05T01:01:25.861Z,16.63
2022-09-05T01:02:56.279Z,16.62
2022-09-05T01:04:05.759Z,16.61
2022-09-05T01:05:19.333Z,16.62
2022-09-05T01:06:26.262Z,16.61
2022-09-05T01:07:44.124Z,16.57
2022-09-05T01:08:54.637Z,16.55
2022-09-05T01:10:19.785Z,16.55
2022-09-05T01:11:39.552Z,16.51
2022-09-05T01:12:52.775Z,16.49
2022-09-05T01:13:59.857Z,16.50
2022-09-05T01:15:09.264Z,16.52
2022-09-05T01:16:25.756Z,16.55
2022-09-05T01:17:34.095Z,16.55
2022-09-05T01:18:41.438Z,16.56
2022-09-05T01:20:04.925Z,16.58
2022-09-05T01:21:37.723Z,16.66
2022-09-05T01:22:45.247Z,16.73
2022-09-05T01:23:55.708Z,16.80
2022-09-05T01:24:57.039Z,16.89
2022-09-05T01:26:13.170Z,16.94
2022-09-05T01:27:56.216Z,17.03
2022-09-05T01:29:18.483Z,17.11
2022-09-05T01:30:31.972Z,17.14
2022-09-05T01:31:44.271Z,17.15
2022-09-05T01:32:48.488Z,17.17
2022-09-05T01:34:02.046Z,17.14
2022-09-05T01:35:21.791Z,17.14
2022-09-05T01:36:32.300Z,17.13
2022-09-05T01:37:52.382Z,17.09
2022-09-05T01:40:11.850Z,17.07
2022-09-05T01:40:28.252Z,17.07
2022-09-05T01:41:32.709Z,17.04
2022-09-05T01:43:03.312Z,17.04
2022-09-05T01:44:07.692Z,17.03
2022-09-05T01:45:39.784Z,17.04
2022-09-05T01:46:59.371Z,17.07
2022-09-05T01:48:07.643Z,17.11
2022-09-05T01:49:19.003Z,17.12
2022-09-05T01:50:32.392Z,17.18
2022-09-05T01:51:52.185Z,17.22
2022-09-05T01:53:10.053Z,17.25
2022-09-05T01:54:24.136Z,17.27
2022-09-05T01:55:32.887Z,17.29
2022-09-05T01:56:59.480Z,17.31
2022-09-05T01:58:10.021Z,17.32
2022-09-05T01:59:11.339Z,17.31
2022-09-05T02:00:17.425Z,17.32
2022-09-05T02:01:26.599Z,17.33
2022-09-05T02:02:52.742Z,17.28
2022-09-05T02:04:09.427Z,17.28
2022-09-05T02:05:47.592Z,17.28
2022-09-05T02:07:19.392Z,17.33
2022-09-05T02:08:33.916Z,17.40
2022-09-05T02:09:52.735Z,17.40
2022-09-05T02:11:04.497Z,17.40
2022-09-05T02:12:15.033Z,17.41
2022-09-05T02:13:22.175Z,17.37
2022-09-05T02:14:31.033Z,17.34
2022-09-05T02:15:59.007Z,17.31
2022-09-05T02:17:28.567Z,17.30
2022-09-05T02:18:49.039Z,17.34
2022-09-05T02:19:53.105Z,17.32
2022-09-05T02:21:00.357Z,17.34
2022-09-05T02:22:07.253Z,17.34
2022-09-05T02:23:34.214Z,17.34
2022-09-05T02:24:36.632Z,17.33
2022-09-05T02:26:02.517Z,17.34
2022-09-05T02:27:35.866Z,17.33
2022-09-05T02:29:29.240Z,17.34
2022-09-05T02:30:35.494Z,17.25
2022-09-05T02:31:39.573Z,17.22
2022-09-05T02:32:43.963Z,17.23
2022-09-05T02:33:58.752Z,17.21
2022-09-05T02:35:15.046Z,17.21
2022-09-05T02:36:30.196Z,17.19
2022-09-05T02:39:11.505Z,17.15
2022-09-05T02:44:39.454Z,17.18
2022-09-05T02:45:01.322Z,17.14
2022-09-05T02:45:12.665Z,17.14
2022-09-05T02:45:19.348Z,17.13
2022-09-05T02:45:29.183Z,17.07
2022-09-05T02:46:46.009Z,17.03
2022-09-05T02:47:47.354Z,17.02
2022-09-05T02:48:53.688Z,17.01
2022-09-05T02:52:43.816Z,16.97
2022-09-05T02:57:29.554Z,16.90
2022-09-05T02:57:33.096Z,16.83
2022-09-05T02:57:33.188Z,16.72
2022-09-05T02:58:05.729Z,16.75
2022-09-05T02:58:07.592Z,16.72
2022-09-05T02:59:36.601Z,16.65
2022-09-05T03:00:42.179Z,16.59
2022-09-05T03:02:26.242Z,16.58
2022-09-05T03:03:39.236Z,16.57
2022-09-05T03:04:49.998Z,16.55
2022-09-05T03:06:11.183Z,16.54
2022-09-05T03:07:21.520Z,16.53
2022-09-05T03:08:41.782Z,16.54
2022-09-05T03:09:46.156Z,16.52
2022-09-05T03:11:06.289Z,16.54
2022-09-05T03:12:29.245Z,16.53
2022-09-05T03:13:33.849Z,16.50
2022-09-05T03:14:54.001Z,16.47
2022-09-05T03:16:16.879Z,16.43
2022-09-05T03:17:27.363Z,16.39
2022-09-05T03:18:48.647Z,16.37
2022-09-05T03:19:56.268Z,16.40
2022-09-05T03:21:16.140Z,16.44
2022-09-05T03:22:37.186Z,16.46
2022-09-05T03:23:49.623Z,16.45
2022-09-05T03:25:20.955Z,16.42
2022-09-05T03:26:41.310Z,16.35
2022-09-05T03:28:01.427Z,16.31
2022-09-05T03:29:11.408Z,16.27
2022-09-05T03:30:15.903Z,16.23
2022-09-05T03:31:45.951Z,16.22
2022-09-05T03:32:47.245Z,16.18
2022-09-05T03:34:03.781Z,16.18
2022-09-05T03:35:23.961Z,16.15
2022-09-05T03:36:25.295Z,16.17
2022-09-05T03:37:36.004Z,16.19
2022-09-05T03:38:49.318Z,16.21
2022-09-05T03:40:16.228Z,16.18
2022-09-05T03:41:18.072Z,16.17
2022-09-05T03:42:21.959Z,16.16
2022-09-05T03:43:30.667Z,16.14
2022-09-05T03:44:50.583Z,16.13
2022-09-05T03:46:15.004Z,16.10
2022-09-05T03:47:35.140Z,16.06
2022-09-05T03:48:48.490Z,16.03
2022-09-05T03:52:59.706Z,16.03
2022-09-05T03:57:05.649Z,16.02
2022-09-05T03:57:16.803Z,16.10
2022-09-05T03:57:20.723Z,16.00
2022-09-05T03:57:24.169Z,16.03
2022-09-05T03:58:18.277Z,16.15
2022-09-05T03:59:22.292Z,16.20
2022-09-05T04:00:25.910Z,16.19
2022-09-05T04:06:08.992Z,16.20
2022-09-05T04:08:10.293Z,16.20
2022-09-05T04:08:14.681Z,16.20
2022-09-05T04:08:19.246Z,16.23
2022-09-05T04:08:26.623Z,16.23
2022-09-05T04:09:13.809Z,16.25
2022-09-05T04:10:32.379Z,16.21
2022-09-05T04:11:47.321Z,16.17
2022-09-05T04:12:48.640Z,16.10
2022-09-05T04:13:49.950Z,16.12
2022-09-05T04:14:51.274Z,16.12
2022-09-05T04:16:11.314Z,16.11
2022-09-05T04:17:31.159Z,16.10
2022-09-05T04:18:41.027Z,16.10
2022-09-05T04:19:50.803Z,16.10
2022-09-05T04:21:16.551Z,16.10
2022-09-05T04:22:21.717Z,16.10
2022-09-05T04:23:28.890Z,16.07
2022-09-05T04:24:36.432Z,16.14
2022-09-05T04:26:11.643Z,16.13
2022-09-05T04:27:27.937Z,16.10
2022-09-05T04:28:53.614Z,16.09
2022-09-05T04:29:55.280Z,16.09
2022-09-05T04:31:16.910Z,16.11
2022-09-05T04:32:23.957Z,16.20
2022-09-05T04:33:36.409Z,16.21
2022-09-05T04:34:58.948Z,16.20
2022-09-05T04:36:06.875Z,16.20
2022-09-05T04:37:48.067Z,16.21
2022-09-05T04:39:05.549Z,16.24
2022-09-05T04:40:28.703Z,16.26
2022-09-05T04:41:39.178Z,16.27
2022-09-05T04:42:41.648Z,16.29
2022-09-05T04:43:51.473Z,16.30
2022-09-05T04:44:56.306Z,16.28
2022-09-05T04:46:10.692Z,16.29
2022-09-05T04:47:15.864Z,16.29
2022-09-05T04:48:28.214Z,16.30
2022-09-05T04:49:52.626Z,16.29
2022-09-05T04:51:06.130Z,16.27
2022-09-05T04:52:26.260Z,16.34
2022-09-05T04:53:38.843Z,16.32
2022-09-05T04:54:44.906Z,16.33
2022-09-05T04:55:51.168Z,16.30
2022-09-05T04:57:13.718Z,16.32
2022-09-05T04:58:56.146Z,16.32
2022-09-05T05:05:36.462Z,16.42
2022-09-05T05:06:00.448Z,16.43
2022-09-05T05:06:09.089Z,16.49
2022-09-05T05:06:09.962Z,16.45
2022-09-05T05:06:17.347Z,16.48
2022-09-05T05:07:19.708Z,16.56
2022-09-05T05:08:27.800Z,16.55
2022-09-05T05:09:44.265Z,16.58
2022-09-05T05:16:13.509Z,16.62
2022-09-05T05:17:56.049Z,16.67
2022-09-05T05:17:57.276Z,16.70
2022-09-05T05:18:06.382Z,16.71
2022-09-05T05:18:08.954Z,16.67
2022-09-05T05:18:37.748Z,16.73
2022-09-05T05:19:57.866Z,16.70
2022-09-05T05:21:17.508Z,16.75
2022-09-05T05:22:18.963Z,16.76
2022-09-05T05:23:29.259Z,16.79
2022-09-05T05:24:41.975Z,16.79
2022-09-05T05:25:49.591Z,16.83
2022-09-05T05:27:06.107Z,16.84
2022-09-05T05:28:22.737Z,16.83
2022-09-05T05:29:45.488Z,16.80
2022-09-05T05:30:46.927Z,16.89
2022-09-05T05:31:51.987Z,16.90
2022-09-05T05:32:54.608Z,16.89
2022-09-05T05:33:58.842Z,16.90
2022-09-05T05:35:13.691Z,16.90
2022-09-05T05:36:18.075Z,16.87
2022-09-05T05:37:23.200Z,16.88
2022-09-05T05:38:39.602Z,16.91
2022-09-05T05:39:44.485Z,16.88
2022-09-05T05:40:59.941Z,16.94
2022-09-05T05:42:19.358Z,17.00
2022-09-05T05:43:26.221Z,17.01
2022-09-05T05:44:29.486Z,17.05
2022-09-05T05:45:32.774Z,17.07
2022-09-05T05:46:37.421Z,17.10
2022-09-05T05:47:42.636Z,17.13
2022-09-05T05:48:55.139Z,17.16
2022-09-05T05:50:11.544Z,17.19
2022-09-05T05:51:34.742Z,17.23
2022-09-05T05:52:47.668Z,17.24
2022-09-05T05:53:52.373Z,17.28
2022-09-05T05:55:07.357Z,17.30
2022-09-05T05:56:32.678Z,17.32
2022-09-05T05:57:37.070Z,17.34
2022-09-05T05:58:56.846Z,17.38
2022-09-05T06:00:04.279Z,17.45
2022-09-05T06:01:21.945Z,17.45
2022-09-05T06:03:10.031Z,17.44
2022-09-05T06:04:43.311Z,17.44
2022-09-05T06:05:59.039Z,17.42
2022-09-05T06:07:18.947Z,17.48
2022-09-05T06:11:16.008Z,17.48
2022-09-05T06:14:50.243Z,17.44
2022-09-05T06:14:51.252Z,17.44
2022-09-05T06:15:00.626Z,17.53
2022-09-05T06:15:06.395Z,17.48
2022-09-05T06:15:51.494Z,17.60
2022-09-05T06:17:11.501Z,17.64
2022-09-05T06:18:18.699Z,17.71
2022-09-05T06:19:31.830Z,17.76
2022-09-05T06:22:10.882Z,17.84
2022-09-05T06:22:49.057Z,17.93
2022-09-05T06:23:50.382Z,18.07
2022-09-05T06:25:16.417Z,18.22
2022-09-05T06:26:37.407Z,18.35
2022-09-05T06:28:19.332Z,18.45
2022-09-05T06:29:35.224Z,18.52
2022-09-05T06:30:47.663Z,18.68
2022-09-05T06:31:52.513Z,18.71
2022-09-05T06:32:58.211Z,18.73
2022-09-05T06:34:27.224Z,18.77
2022-09-05T06:35:52.774Z,18.92
2022-09-05T06:37:17.620Z,19.05
2022-09-05T06:38:27.901Z,19.12
2022-09-05T06:39:35.374Z,19.28
2022-09-05T06:40:50.505Z,19.23
2022-09-05T06:42:10.913Z,19.23
2022-09-05T06:43:58.019Z,19.29
2022-09-05T06:45:27.008Z,19.35
2022-09-05T06:47:22.011Z,19.33
2022-09-05T06:48:04.104Z,19.40
2022-09-05T06:49:30.671Z,19.49
2022-09-05T06:51:02.008Z,19.53
2022-09-05T06:52:28.560Z,19.51
2022-09-05T06:53:31.334Z,19.50
2022-09-05T06:54:35.913Z,19.55
2022-09-05T06:55:56.660Z,19.61
2022-09-05T06:56:58.139Z,19.67
2022-09-05T06:58:05.469Z,19.73
2022-09-05T06:59:24.971Z,19.78
2022-09-05T07:00:52.509Z,19.90
2022-09-05T07:02:02.516Z,19.88
2022-09-05T07:03:22.825Z,19.89
2022-09-05T07:05:19.857Z,19.97
2022-09-05T07:06:04.845Z,19.96
2022-09-05T07:07:17.029Z,20.03
2022-09-05T07:08:36.497Z,20.10
2022-09-05T07:09:47.363Z,20.10
2022-09-05T07:10:56.527Z,20.10
2022-09-05T07:12:19.331Z,20.08
2022-09-05T07:13:44.774Z,20.06
2022-09-05T07:14:58.240Z,20.13
2022-09-05T07:16:17.886Z,20.18
2022-09-05T07:18:09.723Z,20.23
2022-09-05T07:19:16.657Z,20.29
2022-09-05T07:20:22.464Z,20.32
2022-09-05T07:21:30.399Z,20.37
2022-09-05T07:22:55.424Z,20.37
2022-09-05T07:24:06.378Z,20.48
2022-09-05T07:25:17.962Z,20.49
2022-09-05T07:26:49.669Z,20.48
2022-09-05T07:28:26.525Z,20.48
2022-09-05T07:29:18.008Z,20.54
2022-09-05T07:30:19.672Z,20.58
2022-09-05T07:31:27.340Z,20.64
2022-09-05T07:32:42.261Z,20.67
2022-09-05T07:33:45.870Z,20.67
2022-09-05T07:34:48.269Z,20.68
2022-09-05T07:35:50.682Z,20.74
2022-09-05T07:37:14.626Z,20.76
2022-09-05T07:38:20.720Z,20.74
2022-09-05T07:39:29.263Z,20.74
2022-09-05T07:40:34.507Z,20.75
2022-09-05T07:41:36.084Z,20.81
2022-09-05T07:42:39.645Z,20.83
2022-09-05T07:43:42.844Z,20.84
2022-09-05T07:44:53.271Z,20.89
2022-09-05T07:46:14.923Z,20.91
2022-09-05T07:47:16.439Z,20.97
2022-09-05T07:48:22.548Z,21.00
2022-09-05T07:50:16.343Z,21.06
2022-09-05T07:56:46.627Z,21.14
2022-09-05T07:56:51.731Z,21.32
2022-09-05T07:56:55.403Z,21.30
2022-09-05T07:57:10.321Z,21.24
2022-09-05T07:58:17.044Z,21.35
2022-09-05T07:59:19.823Z,21.42
2022-09-05T08:00:29.426Z,21.47
2022-09-05T08:01:39.667Z,21.49
2022-09-05T08:02:47.033Z,21.54
2022-09-05T08:03:55.309Z,21.58
2022-09-05T08:05:02.009Z,21.54
2022-09-05T08:06:05.900Z,21.53
2022-09-05T08:07:47.203Z,21.53
2022-09-05T08:08:30.708Z,21.56
2022-09-05T08:10:08.810Z,21.57
2022-09-05T08:11:23.314Z,21.64
2022-09-05T08:12:32.679Z,21.70
2022-09-05T08:14:44.517Z,21.66
2022-09-05T08:15:22.923Z,21.65
2022-09-05T08:16:25.905Z,21.70
2022-09-05T08:17:30.354Z,21.71
2022-09-05T08:18:43.881Z,21.72
2022-09-05T08:19:57.829Z,21.75
2022-09-05T08:21:18.750Z,21.78
2022-09-05T08:22:31.054Z,21.81
2022-09-05T08:23:51.046Z,21.83
2022-09-05T08:24:59.923Z,21.91
2022-09-05T08:26:42.239Z,21.96
2022-09-05T08:27:55.891Z,22.04
2022-09-05T08:29:15.725Z,22.11
2022-09-05T08:30:25.911Z,22.20
2022-09-05T08:31:34.291Z,22.30
2022-09-05T08:32:45.160Z,22.34
2022-09-05T08:33:48.602Z,22.44
2022-09-05T08:34:56.305Z,22.47
2022-09-05T08:36:04.564Z,22.46
2022-09-05T08:37:07.499Z,22.50
2022-09-05T08:38:11.742Z,22.51
2022-09-05T08:39:16.528Z,22.55
2022-09-05T08:40:38.138Z,22.53
2022-09-05T08:41:58.799Z,22.53
2022-09-05T08:44:13.551Z,22.68
2022-09-05T08:46:40.813Z,22.74
2022-09-05T08:46:43.073Z,22.73
2022-09-05T08:48:10.399Z,22.73
2022-09-05T08:49:36.842Z,22.75
2022-09-05T08:50:39.362Z,22.84
2022-09-05T08:51:55.188Z,22.83
2022-09-05T08:53:29.010Z,22.88
2022-09-05T08:54:42.582Z,22.94
2022-09-05T08:55:53.464Z,22.94
2022-09-05T08:56:54.791Z,22.97
2022-09-05T08:58:26.712Z,22.98
2022-09-05T09:00:04.321Z,23.00
2022-09-05T09:01:03.979Z,23.08
2022-09-05T09:02:45.137Z,23.18
2022-09-05T09:03:52.717Z,23.19
2022-09-05T09:05:04.754Z,23.24
2022-09-05T09:06:15.118Z,23.28
2022-09-05T09:07:50.913Z,23.31
2022-09-05T09:09:05.406Z,23.30
2022-09-05T09:10:10.340Z,23.35
2022-09-05T09:11:16.523Z,23.33
2022-09-05T09:12:27.244Z,23.40
2022-09-05T09:13:34.709Z,23.43
2022-09-05T09:14:47.081Z,23.57
2022-09-05T09:15:54.443Z,23.63
2022-09-05T09:17:14.027Z,23.62
2022-09-05T09:18:16.693Z,23.70
2022-09-05T09:19:29.100Z,23.75
2022-09-05T09:20:37.009Z,23.83
2022-09-05T09:22:11.710Z,23.87
2022-09-05T09:23:32.913Z,23.95
2022-09-05T09:24:41.119Z,23.97
2022-09-05T09:25:50.916Z,24.01
2022-09-05T09:27:31.375Z,24.05
2022-09-05T09:29:01.224Z,24.09
2022-09-05T09:30:04.912Z,24.15
2022-09-05T09:31:19.845Z,24.17
2022-09-05T09:32:22.263Z,24.22
2022-09-05T09:33:34.168Z,24.27
2022-09-05T09:35:01.519Z,24.39
2022-09-05T09:36:16.250Z,24.41
2022-09-05T09:37:49.557Z,24.40
2022-09-05T09:39:37.051Z,24.40
2022-09-05T09:40:37.062Z,24.47
2022-09-05T09:41:44.021Z,24.47
2022-09-05T09:43:07.206Z,24.52
2022-09-05T09:44:14.941Z,24.55
2022-09-05T09:45:28.997Z,24.58
2022-09-05T09:46:33.668Z,24.58
2022-09-05T09:48:01.463Z,24.59
2022-09-05T09:49:05.570Z,24.72
2022-09-05T09:50:53.514Z,24.67
2022-09-05T09:52:25.634Z,24.73
2022-09-05T09:53:26.963Z,24.78
2022-09-05T09:54:40.458Z,24.92
2022-09-05T09:55:47.883Z,24.88
2022-09-05T09:56:54.768Z,24.85
2022-09-05T09:58:14.413Z,24.87
2022-09-05T09:59:33.435Z,24.97
2022-09-05T10:00:43.134Z,25.12
2022-09-05T10:03:26.983Z,25.19
2022-09-05T10:06:48.230Z,25.20
2022-09-05T10:10:38.941Z,25.31
2022-09-05T10:10:51.119Z,25.31
2022-09-05T10:10:54.221Z,25.33
2022-09-05T10:10:57.450Z,25.36
2022-09-05T10:11:53.104Z,25.36
2022-09-05T10:13:08.556Z,25.36
2022-09-05T10:14:27.779Z,25.43
2022-09-05T10:16:04.163Z,25.51
2022-09-05T10:17:27.995Z,25.54
2022-09-05T10:18:32.149Z,25.53
2022-09-05T10:20:11.240Z,25.50
2022-09-05T10:21:17.726Z,25.49
2022-09-05T10:22:35.247Z,25.50
2022-09-05T10:23:49.625Z,25.53
2022-09-05T10:25:18.506Z,25.52
2022-09-05T10:26:20.322Z,25.60
2022-09-05T10:27:31.075Z,25.70
2022-09-05T10:28:38.207Z,25.80
2022-09-05T10:29:42.308Z,25.85
2022-09-05T10:32:37.691Z,25.87
2022-09-05T10:35:02.848Z,25.87
2022-09-05T10:35:17.697Z,25.88
2022-09-05T10:35:20.880Z,25.91
2022-09-05T10:36:23.557Z,26.07
2022-09-05T10:37:45.225Z,26.15
2022-09-05T10:38:50.205Z,26.21
2022-09-05T10:39:51.855Z,26.25
2022-09-05T10:41:20.718Z,26.27
2022-09-05T10:42:19.710Z,26.32
2022-09-05T10:43:23.914Z,26.36
2022-09-05T10:44:31.113Z,26.39
2022-09-05T10:45:47.459Z,26.39
2022-09-05T10:46:52.214Z,26.52
2022-09-05T10:48:13.208Z,26.54
2022-09-05T10:49:16.414Z,26.51
2022-09-05T10:50:17.951Z,26.51
2022-09-05T10:51:27.290Z,26.53
2022-09-05T10:52:35.246Z,26.67
2022-09-05T10:53:43.343Z,26.73
2022-09-05T10:55:14.689Z,26.71
2022-09-05T10:56:22.871Z,26.78
2022-09-05T10:57:38.974Z,26.95
2022-09-05T11:01:12.716Z,27.05
2022-09-05T11:02:20.685Z,26.99
2022-09-05T11:02:26.703Z,26.97
2022-09-05T11:03:41.772Z,26.98
2022-09-05T11:04:49.738Z,27.01
2022-09-05T11:05:56.987Z,27.05
2022-09-05T11:07:18.555Z,27.04
2022-09-05T11:08:42.529Z,27.02
2022-09-05T11:10:10.058Z,27.11
2022-09-05T11:11:28.498Z,27.10
2022-09-05T11:12:43.444Z,27.14
2022-09-05T11:13:49.714Z,27.21
2022-09-05T11:14:52.991Z,27.27
2022-09-05T11:16:13.372Z,27.29
2022-09-05T11:17:30.648Z,27.49
2022-09-05T11:18:55.040Z,27.59
2022-09-05T11:19:57.928Z,27.66
2022-09-05T11:21:05.040Z,27.69
2022-09-05T11:22:22.060Z,27.61
2022-09-05T11:23:33.444Z,27.61
2022-09-05T11:24:44.569Z,27.72
2022-09-05T11:25:46.823Z,27.80
2022-09-05T11:27:23.537Z,27.82
2022-09-05T11:28:22.023Z,27.83
2022-09-05T11:29:42.270Z,27.82
2022-09-05T11:30:48.509Z,27.83
2022-09-05T11:34:04.197Z,27.80
2022-09-05T11:39:47.647Z,27.82
2022-09-05T11:40:00.116Z,27.78
2022-09-05T11:40:02.700Z,27.89
2022-09-05T11:40:03.624Z,28.06
2022-09-05T11:40:10.359Z,28.05
2022-09-05T11:40:59.152Z,28.10
2022-09-05T11:42:20.441Z,28.18
2022-09-05T11:43:39.944Z,28.31
2022-09-05T11:44:50.661Z,28.23
2022-09-05T11:45:57.812Z,28.22
2022-09-05T11:47:28.224Z,28.27
2022-09-05T11:48:32.592Z,28.22
2022-09-05T11:49:33.924Z,28.23
2022-09-05T11:50:53.396Z,28.22
2022-09-05T11:52:13.364Z,28.26
2022-09-05T11:53:32.991Z,28.13
2022-09-05T11:54:46.158Z,28.15
2022-09-05T11:56:02.769Z,28.27
2022-09-05T11:57:33.360Z,28.26
2022-09-05T11:58:54.821Z,28.34
2022-09-05T12:00:32.854Z,28.39
2022-09-05T12:01:47.698Z,28.37
2022-09-05T12:03:04.114Z,28.36
2022-09-05T12:04:20.758Z,28.31
2022-09-05T12:05:48.890Z,28.25
2022-09-05T12:06:55.254Z,28.39
2022-09-05T12:08:15.433Z,28.36
2022-09-05T12:09:29.274Z,28.42
2022-09-05T12:10:48.362Z,28.50
2022-09-05T12:12:01.777Z,28.47
2022-09-05T12:13:24.611Z,28.40
2022-09-05T12:14:54.946Z,28.35
2022-09-05T12:16:08.617Z,28.43
2022-09-05T12:17:35.604Z,28.47
2022-09-05T12:18:55.995Z,28.55
2022-09-05T12:20:17.235Z,28.55
2022-09-05T12:21:29.094Z,28.51
2022-09-05T12:22:35.948Z,28.58
2022-09-05T12:24:12.681Z,28.59
2022-09-05T12:25:27.219Z,28.63
2022-09-05T12:27:44.542Z,28.68
2022-09-05T12:29:03.194Z,28.76
2022-09-05T12:29:45.568Z,28.72
2022-09-05T12:31:09.998Z,28.68
2022-09-05T12:33:11.418Z,28.68
2022-09-05T12:36:06.336Z,28.76
2022-09-05T12:36:12.399Z,28.72
2022-09-05T12:40:43.509Z,28.74
2022-09-05T12:40:55.890Z,28.77
2022-09-05T12:41:01.145Z,28.72
2022-09-05T12:41:44.118Z,28.66
2022-09-05T12:42:40.033Z,28.76
2022-09-05T12:44:38.435Z,28.87
2022-09-05T12:45:37.053Z,28.96
2022-09-05T12:46:57.876Z,28.93
2022-09-05T12:48:10.679Z,28.89
2022-09-05T12:49:23.005Z,28.92
2022-09-05T12:50:42.467Z,28.98
2022-09-05T12:51:53.921Z,28.97
2022-09-05T12:52:59.883Z,29.01
2022-09-05T12:54:02.921Z,28.97
2022-09-05T12:55:24.587Z,28.95
2022-09-05T12:57:27.744Z,28.93
2022-09-05T13:02:22.133Z,28.94
2022-09-05T13:02:56.973Z,28.97
2022-09-05T13:03:08.863Z,29.07
2022-09-05T13:03:12.131Z,29.06
2022-09-05T13:03:29.853Z,29.07
2022-09-05T13:04:36.612Z,29.10
2022-09-05T13:05:50.162Z,29.27
2022-09-05T13:07:11.347Z,29.35
2022-09-05T13:08:13.875Z,29.35
2022-09-05T13:09:21.471Z,29.36
2022-09-05T13:13:55.041Z,29.33
2022-09-05T13:14:54.125Z,29.38
2022-09-05T13:14:57.343Z,29.29
2022-09-05T13:15:07.873Z,29.32
2022-09-05T13:16:23.015Z,29.34
2022-09-05T13:17:29.341Z,29.35
2022-09-05T13:18:36.543Z,29.33
2022-09-05T13:19:40.180Z,29.35
2022-09-05T13:20:53.620Z,29.38
2022-09-05T13:21:55.900Z,29.28
2022-09-05T13:22:57.383Z,29.18
2022-09-05T13:24:04.855Z,29.14
2022-09-05T13:25:09.696Z,29.11
2022-09-05T13:26:13.163Z,29.11
2022-09-05T13:27:15.803Z,29.23
2022-09-05T13:28:18.528Z,29.30
2022-09-05T13:29:22.020Z,29.36
2022-09-05T13:33:59.695Z,29.37
2022-09-05T13:37:58.308Z,29.40
2022-09-05T13:38:08.055Z,29.44
2022-09-05T13:38:12.465Z,29.49
2022-09-05T13:38:13.698Z,29.45
2022-09-05T13:38:20.929Z,29.41
2022-09-05T13:39:04.108Z,29.58
2022-09-05T13:40:11.281Z,29.66
2022-09-05T13:41:27.015Z,29.73
2022-09-05T13:42:40.120Z,29.78
2022-09-05T13:43:44.205Z,29.84
2022-09-05T13:44:46.481Z,29.80
2022-09-05T13:46:06.675Z,29.85
2022-09-05T13:47:29.660Z,29.85
2022-09-05T13:50:11.649Z,30.05
2022-09-05T13:51:23.176Z,30.05
2022-09-05T13:52:30.783Z,30.04
2022-09-05T13:53:36.785Z,30.08
2022-09-05T13:54:51.416Z,30.15
2022-09-05T13:56:02.910Z,30.28
2022-09-05T13:57:31.883Z,30.38
2022-09-05T13:58:40.106Z,30.40
2022-09-05T14:00:01.936Z,30.44
2022-09-05T14:01:19.038Z,30.50
2022-09-05T14:02:29.348Z,30.51
2022-09-05T14:03:39.278Z,30.57
2022-09-05T14:05:08.412Z,30.66
2022-09-05T14:06:46.338Z,30.66
2022-09-05T14:07:44.460Z,30.79
2022-09-05T14:10:32.297Z,30.80
2022-09-05T14:11:51.139Z,30.79
2022-09-05T14:13:00.413Z,30.92
2022-09-05T14:14:09.315Z,30.92
2022-09-05T14:15:32.032Z,30.76
2022-09-05T14:16:43.502Z,30.76
2022-09-05T14:17:58.487Z,30.65
2022-09-05T14:19:00.664Z,30.56
2022-09-05T14:20:05.615Z,30.68
2022-09-05T14:21:10.513Z,30.77
2022-09-05T14:22:30.686Z,30.81
2022-09-05T14:23:40.173Z,30.86
2022-09-05T14:24:46.162Z,30.77
2022-09-05T14:25:57.808Z,30.73
2022-09-05T14:26:59.170Z,30.65
2022-09-05T14:28:01.102Z,30.73
2022-09-05T14:29:21.419Z,30.71
2022-09-05T14:34:07.090Z,30.61
2022-09-05T14:37:41.283Z,30.80
2022-09-05T14:37:41.283Z,30.91
2022-09-05T14:37:55.227Z,31.16
2022-09-05T14:38:00.946Z,31.10
2022-09-05T14:38:13.700Z,31.19
2022-09-05T14:39:16.980Z,31.18
2022-09-05T14:40:44.346Z,31.21
2022-09-05T14:42:07.913Z,31.08
2022-09-05T14:43:11.008Z,31.09
2022-09-05T14:44:30.775Z,31.10
2022-09-05T14:45:34.758Z,31.16
2022-09-05T14:46:42.138Z,31.17
2022-09-05T14:48:02.502Z,31.21
2022-09-05T14:49:22.001Z,31.30
2022-09-05T14:51:02.029Z,31.22
2022-09-05T14:52:23.581Z,31.19
2022-09-05T14:58:19.592Z,31.26
2022-09-05T15:02:48.461Z,31.35
2022-09-05T15:02:49.282Z,31.38
2022-09-05T15:02:49.441Z,31.45
2022-09-05T15:02:52.809Z,31.32
2022-09-05T15:05:11.132Z,31.36
2022-09-05T15:06:14.736Z,31.28
2022-09-05T15:07:16.047Z,31.30
2022-09-05T15:08:53.787Z,31.37
2022-09-05T15:12:15.834Z,31.43
2022-09-05T15:12:20.127Z,31.56
2022-09-05T15:12:39.707Z,31.50
2022-09-05T15:13:56.689Z,31.68
2022-09-05T15:15:18.275Z,31.51
2022-09-05T15:16:22.397Z,31.49
2022-09-05T15:17:25.244Z,31.42
2022-09-05T15:18:28.467Z,31.34
2022-09-05T15:20:05.665Z,31.35
2022-09-05T15:21:34.031Z,31.27
2022-09-05T15:22:37.771Z,31.33
2022-09-05T15:23:39.188Z,31.28
2022-09-05T15:24:40.533Z,31.25
2022-09-05T15:25:44.208Z,31.18
2022-09-05T15:26:53.980Z,31.21
2022-09-05T15:27:55.760Z,31.22
2022-09-05T15:29:13.841Z,31.24
2022-09-05T15:30:17.534Z,31.31
2022-09-05T15:31:18.948Z,31.28
2022-09-05T15:32:26.831Z,31.27
2022-09-05T15:33:29.471Z,31.26
2022-09-05T15:34:32.605Z,31.32
2022-09-05T15:35:35.728Z,31.33
2022-09-05T15:36:38.828Z,31.31
2022-09-05T15:37:41.543Z,31.24
2022-09-05T15:38:55.279Z,31.23
2022-09-05T15:40:23.563Z,31.21
2022-09-05T15:41:29.300Z,31.26
2022-09-05T15:42:32.659Z,31.29
2022-09-05T15:43:36.039Z,31.30
2022-09-05T15:44:53.174Z,31.33
2022-09-05T15:46:03.081Z,31.23
2022-09-05T15:47:06.034Z,31.30
2022-09-05T15:48:24.199Z,31.28
2022-09-05T15:49:48.150Z,31.28
2022-09-05T15:50:53.981Z,31.26
2022-09-05T15:51:57.234Z,31.24
2022-09-05T15:52:59.215Z,31.13
2022-09-05T15:54:01.040Z,31.11
2022-09-05T15:55:11.640Z,31.10
2022-09-05T15:56:13.005Z,31.14
2022-09-05T15:57:32.923Z,31.15
2022-09-05T15:58:53.189Z,31.16
2022-09-05T15:59:57.463Z,31.12
2022-09-05T16:01:10.082Z,31.12
2022-09-05T16:02:15.674Z,31.09
2022-09-05T16:03:34.894Z,31.07
2022-09-05T16:10:15.189Z,31.07
2022-09-05T16:10:34.910Z,31.02
2022-09-05T16:10:39.493Z,30.69
2022-09-05T16:10:41.918Z,30.85
2022-09-05T16:10:46.391Z,30.58
2022-09-05T16:12:14.236Z,30.50
2022-09-05T16:13:06.519Z,30.41
2022-09-05T16:14:10.843Z,30.35
2022-09-05T16:19:06.494Z,30.29
2022-09-05T16:23:18.357Z,30.17
2022-09-05T16:23:19.798Z,30.23
2022-09-05T16:23:28.981Z,30.04
2022-09-05T16:23:33.125Z,30.04
2022-09-05T16:23:33.829Z,30.09
2022-09-05T16:23:45.863Z,29.96
2022-09-05T16:24:59.069Z,29.92
2022-09-05T16:26:06.204Z,29.84
2022-09-05T16:27:07.919Z,29.72
2022-09-05T16:28:15.783Z,29.62
2022-09-05T16:29:17.096Z,29.61
2022-09-05T16:30:26.592Z,29.56
2022-09-05T16:31:46.980Z,29.47
2022-09-05T16:32:51.593Z,29.35
2022-09-05T16:33:53.195Z,29.22
2022-09-05T16:35:00.343Z,29.15